EGAD weather

Newtownards Airport
Newtownards, Northern Ireland, United Kingdom

Public forecast

Using degrees Celsius for public forecast. Weather courtesy of forecast.io.

METAR (pilot weather report)

Closest report is George Best Belfast City Airport, 6.7 nm (12.3 km) WNW. Retrieved 2019/04/18 22:20 UTC (7 minutes ago):

EGAC 182220Z AUTO VRB01KT 5000 HZ NCD 10/08 Q1027

TAF (pilot weather forecast)

Closest forecast is Belfast International Airport, 18.8 nm (34.8 km) WNW. Retrieved 2019/04/18 18:00 UTC (4 hours ago):

TAF EGAA 181702Z 1818/1918 11008KT 6000 FEW025 PROB40 1818/1907 4000 HZ BECMG 1907/1910 9999